Weimar, California
Current Conditions -  °F | °C
As of 9:35 AM on Thursday 23 Oct 2014 (Local Time) from KAUN Reporting Station
Clear Clear  
Wind Chill: 63°   Ceiling: Unl
Heat Index: 63°   Visibility: 10mi
Dew Point: 41°   Wind: 7mph
Humidity: 45%   Direction: 120°ESE
Pressure: 30.07"   Gusts: NA
Location:  39.04°N, 120.97°W
Report Text: KAUN 231635Z AUTO 12006KT 10SM CLR 17/05 A3007 RMK AO1
Loading
Personal Weather Stations






























Interactive Weather Map
Tropical Storm Tracking
New forecast layout! Learn more

10-Day Weather Forecast

Advertisements
Track Severe Weather on mobile